• Join FlightAware (Why Join?)
  • Login
  • US Flag 
09:38AM EDT


 

Airport Tracker/Info


-or-


 

Live Flight TrackerFlight Track Log ✈ CSJ405 ✈ 01-May-2013 ✈ KALB - KCDW

Flight Track Log - Related Links

Times and Time Zones

All times are in EDT time to prevent confusion due to time zone crossing. See the CSJ405 flight status page for this flight to view local times or setup timezone preferences in your user account.

Time Position Orientation Groundspeed Altitude Reporting Facility
EDT Latitude Longitude Course Direction KTS MPH feet Rate Location/Type
05:33PM 42.7339 -73.8053 188° South 104 120 1,100  Level Boston Center
05:33PM 42.7214 -73.8078 188° South 104 120 1,600 1,260 Climbing Boston Center
05:34PM 42.6942 -73.8214 200° South 102 117 3,100 1,440 Climbing Boston Center
05:35PM 42.6689 -73.8406 209° Southwest 110 127 4,600 1,320 Climbing Boston Center
05:36PM 42.6417 -73.8625 211° Southwest 116 133 5,900 1,260 Climbing Boston Center
05:37PM 42.6142 -73.8931 219° Southwest 120 138 7,200 1,080 Climbing Boston Center
05:38PM 42.5825 -73.9147 207° Southwest 123 142 8,100 420 Climbing Boston Center
05:39PM 42.5425 -73.9478 211° Southwest 172 198 8,100  Level Boston Center
05:40PM 42.5025 -73.9778 209° Southwest 175 201 8,100  Level Boston Center
05:41PM 42.4542 -74.0186 212° Southwest 174 200 8,100 -60 Level Boston Center
05:42PM 42.4181 -74.0489 212° Southwest 174 200 8,000 -60 Descending Boston Center
05:43PM 42.3719 -74.0814 208° Southwest 174 200 8,000  Level Boston Center
05:44PM 42.3361 -74.1111 212° Southwest 174 200 8,000  Level Boston Center
05:46PM 42.2917 -74.1436 208° Southwest 174 200 8,000  Level Boston Center
05:47PM 42.2389 -74.1872 211° Southwest 174 200 8,000  Level Boston Center
05:48PM 42.2011 -74.2142 208° Southwest 174 200 8,000  Level Boston Center
05:49PM 42.1547 -74.2492 209° Southwest 174 200 8,000  Level Boston Center
05:50PM 42.1167 -74.2761 208° Southwest 174 200 8,000  Level Boston Center
05:51PM 42.0703 -74.3083 207° Southwest 179 206 8,000 -180 Level Boston Center
05:52PM 42.0303 -74.3350 206° Southwest 179 206 7,700 -480 Descending Boston Center
05:53PM 41.9794 -74.3756 211° Southwest 184 212 7,100 -300 Descending Boston Center
05:54PM 41.9500 -74.3969 208° Southwest 179 206 7,100  Level Boston Center
05:55PM 41.8953 -74.4342 207° Southwest 179 206 7,100  Level Boston Center
05:56PM 41.8572 -74.4608 208° Southwest 179 206 7,100  Level Boston Center
05:57PM 41.8086 -74.4956 208° Southwest 179 206 7,100  Level Boston Center
05:58PM 41.7789 -74.5169 208° Southwest 179 206 7,100  Level Boston Center
05:59PM 41.7203 -74.5428 198° South 174 200 7,100  Level Boston Center
06:00PM 41.6742 -74.5442 181° South 164 189 7,100 -120 Level Boston Center
06:01PM 41.6261 -74.5508 186° South 164 189 6,900 -360 Descending Boston Center
06:02PM 41.5781 -74.5603 188° South 174 200 6,400 -420 Descending Boston Center
06:03PM 41.5281 -74.5697 188° South 179 206 6,100 -180 Descending Boston Center
06:04PM 41.4819 -74.5792 189° South 179 206 6,100  Level Boston Center
06:05PM 41.4339 -74.5861 186° South 179 206 6,100  Level Boston Center
06:06PM 41.3667 -74.6000 189° South 172 198 6,100  Level New York TRACON
06:07PM 41.3167 -74.6333 207° Southwest 170 196 6,100  Level New York TRACON
06:08PM 41.2667 -74.6500 194° South 171 197 6,100 -360 Level New York TRACON
06:09PM 41.2167 -74.6500 180° South 180 207 5,400 -720 Descending New York TRACON
06:10PM 41.1667 -74.6500 180° South 181 208 4,800 -720 Descending New York TRACON
06:11PM 41.1333 -74.6167 143° Southeast 182 209 4,100 -360 Descending New York TRACON
06:12PM 41.1000 -74.5833 143° Southeast 165 190 4,100  Level New York TRACON
06:13PM 41.1000 -74.5333 90° East 156 180 4,200 -60 Climbing New York TRACON
06:14PM 41.0667 -74.5000 143° Southeast 159 183 4,000 -480 Descending New York TRACON
06:15PM 41.0333 -74.4500 131° Southeast 170 196 3,300 -480 Descending New York TRACON
06:16PM 41.0000 -74.4167 143° Southeast 156 180 3,100 -360 Descending New York TRACON
06:17PM 40.9667 -74.3833 143° Southeast 165 190 2,600 -540 Descending New York TRACON
06:18PM 40.9333 -74.3500 143° Southeast 164 189 2,100 -300 Descending New York TRACON
06:19PM 40.9167 -74.3167 123° Southeast 84 97 2,100 -420 Level New York TRACON
06:20PM 40.9000 -74.2667 114° Southeast 148 170 1,300 -780 Descending New York TRACON
06:23PM 40.8667 -74.2667 128° Southeast  Level FlightAware Approximate
06:30PM 40.8752 -74.2814 128° Southeast  Level Estimated
06:31PM 40.8752 -74.2814 128° Southeast  Level Estimated